Time;durP1;ratioP1;P1;durP2;ratioP2;P2;SDS_P1;SDS_P2;PMS_P1;PMS_P2;Temp;Humidity;BMP_temperature;BMP_pressure;BME280_temperature;BME280_humidity;BME280_pressure;Samples;Min_cycle;Max_cycle;Signal;HPM_P1;HPM_P2
2023/04/10 00:01:43;;;;;;;11.70;9.50;;;11.20;51.90;;;;;;5032323;28;20372;-49
2023/04/10 00:04:09;;;;;;;11.30;9.00;;;11.10;51.70;;;;;;5032847;28;20225;-50
2023/04/10 00:06:34;;;;;;;13.03;10.07;;;11.00;51.60;;;;;;5032813;28;20194;-50
2023/04/10 00:09:00;;;;;;;12.10;9.97;;;11.10;51.90;;;;;;5032716;28;20193;-49
2023/04/10 00:11:26;;;;;;;12.00;9.70;;;11.00;51.90;;;;;;5030643;28;20200;-50
2023/04/10 00:13:52;;;;;;;12.53;9.90;;;11.10;52.40;;;;;;5032610;28;20268;-50
2023/04/10 00:16:18;;;;;;;11.67;9.40;;;11.30;51.70;;;;;;5032453;28;20487;-50
2023/04/10 00:18:44;;;;;;;11.40;10.20;;;11.40;51.30;;;;;;5032259;28;20416;-53
2023/04/10 00:21:10;;;;;;;11.63;9.70;;;11.50;50.90;;;;;;5031865;28;20208;-50
2023/04/10 00:23:36;;;;;;;13.43;10.33;;;11.50;50.50;;;;;;5032484;28;20560;-51
2023/04/10 00:26:02;;;;;;;11.67;9.90;;;11.50;50.90;;;;;;5032323;28;20526;-53
2023/04/10 00:28:28;;;;;;;11.37;9.23;;;11.60;50.80;;;;;;5032291;28;20436;-50
2023/04/10 00:30:54;;;;;;;14.13;10.67;;;11.70;50.60;;;;;;5031777;28;20490;-50
2023/04/10 00:33:19;;;;;;;11.83;9.37;;;11.80;50.20;;;;;;5032270;28;20518;-52
2023/04/10 00:35:45;;;;;;;13.23;9.90;;;11.80;50.00;;;;;;5032055;28;20232;-52
2023/04/10 00:38:11;;;;;;;16.00;9.40;;;11.70;50.00;;;;;;5031459;28;20541;-52
2023/04/10 00:40:37;;;;;;;14.10;10.80;;;11.70;50.00;;;;;;5031105;28;20434;-50
2023/04/10 00:43:02;;;;;;;12.43;10.83;;;11.70;50.00;;;;;;5031979;28;20201;-54
2023/04/10 00:45:28;;;;;;;12.17;10.00;;;11.70;49.90;;;;;;5031810;28;20204;-52
2023/04/10 00:47:54;;;;;;;12.50;10.70;;;11.70;50.00;;;;;;5031960;28;20189;-51
2023/04/10 00:50:20;;;;;;;10.43;8.97;;;11.80;49.90;;;;;;5031858;28;20185;-53
2023/04/10 00:52:48;;;;;;;13.90;10.70;;;11.80;49.70;;;;;;5031399;28;20428;-53
2023/04/10 00:55:14;;;;;;;11.30;10.10;;;11.90;49.60;;;;;;5031439;28;20498;-53
2023/04/10 00:57:44;;;;;;;15.53;10.67;;;11.90;49.60;;;;;;5031548;28;20455;-50
2023/04/10 01:00:11;;;;;;;13.87;11.90;;;11.80;49.40;;;;;;5031367;28;20444;-49
2023/04/10 01:02:37;;;;;;;15.47;12.60;;;11.80;49.50;;;;;;5031242;28;20424;-53
2023/04/10 01:05:03;;;;;;;16.97;12.17;;;11.80;49.60;;;;;;5030893;28;20741;-54
2023/04/10 01:08:07;;;;;;;15.53;12.57;;;11.80;49.70;;;;;;5030622;28;20664;-50
2023/04/10 01:10:59;;;;;;;13.77;11.80;;;11.80;49.70;;;;;;5031118;28;20189;-51
2023/04/10 01:13:32;;;;;;;11.60;10.40;;;11.80;49.60;;;;;;5031204;28;20432;-55
2023/04/10 01:16:06;;;;;;;12.70;11.33;;;11.70;49.50;;;;;;5031230;28;20483;-50
2023/04/10 01:18:40;;;;;;;12.73;10.80;;;11.70;49.60;;;;;;5031437;28;20431;-50
2023/04/10 01:21:10;;;;;;;13.20;9.13;;;11.70;49.60;;;;;;5030671;28;20556;-51
2023/04/10 01:23:57;;;;;;;11.20;9.57;;;11.60;49.50;;;;;;5031231;28;20440;-50
2023/04/10 01:26:51;;;;;;;12.00;9.97;;;11.60;49.70;;;;;;5030999;28;21008;-50
2023/04/10 01:29:19;;;;;;;14.13;10.47;;;11.60;49.60;;;;;;5031101;28;20428;-51
2023/04/10 01:32:16;;;;;;;11.63;9.17;;;11.60;49.60;;;;;;5030844;28;20524;-50
2023/04/10 01:34:49;;;;;;;11.87;10.60;;;11.50;49.50;;;;;;5022675;28;20487;-51
2023/04/10 01:37:29;;;;;;;11.40;9.40;;;11.50;49.40;;;;;;5030856;28;20508;-50
2023/04/10 01:40:02;;;;;;;10.63;9.47;;;11.50;49.30;;;;;;5031012;28;20460;-50
2023/04/10 01:42:37;;;;;;;12.83;10.23;;;11.50;49.40;;;;;;5030160;28;20590;-49
2023/04/10 01:45:05;;;;;;;10.33;9.30;;;11.50;49.50;;;;;;5031114;28;20485;-50
2023/04/10 01:47:31;;;;;;;10.40;9.23;;;11.50;49.50;;;;;;5030945;28;20446;-49
2023/04/10 01:49:58;;;;;;;12.00;9.37;;;11.40;49.50;;;;;;5030862;28;20428;-50
2023/04/10 01:52:25;;;;;;;12.33;10.43;;;11.50;49.60;;;;;;5030513;28;20197;-50
2023/04/10 01:54:52;;;;;;;10.87;9.37;;;11.30;49.90;;;;;;5030810;28;20487;-50
2023/04/10 01:57:19;;;;;;;13.90;10.17;;;11.30;50.20;;;;;;5030675;28;20424;-49
2023/04/10 01:59:45;;;;;;;10.43;9.07;;;11.20;50.10;;;;;;5029132;28;20419;-49
2023/04/10 02:02:11;;;;;;;10.93;9.13;;;11.30;50.00;;;;;;5030164;28;20419;-49
2023/04/10 02:04:37;;;;;;;12.33;9.47;;;11.30;49.80;;;;;;5030658;28;20841;-50
2023/04/10 02:07:04;;;;;;;12.20;9.93;;;11.20;50.00;;;;;;5030674;28;20243;-50
2023/04/10 02:10:01;;;;;;;11.63;10.00;;;11.00;50.50;;;;;;5030531;28;20716;-53
2023/04/10 02:12:43;;;;;;;11.93;10.10;;;10.80;50.80;;;;;;5026797;28;20807;-54
2023/04/10 02:15:10;;;;;;;11.30;9.73;;;10.70;51.30;;;;;;5030527;28;22222;-53
2023/04/10 02:17:38;;;;;;;13.57;10.73;;;10.50;51.90;;;;;;5030573;28;20416;-54
2023/04/10 02:20:06;;;;;;;11.80;9.60;;;10.20;52.60;;;;;;5030359;28;20456;-51
2023/04/10 02:22:33;;;;;;;13.40;10.60;;;10.20;52.60;;;;;;5030160;28;20794;-52
2023/04/10 02:24:58;;;;;;;10.70;9.30;;;10.10;52.80;;;;;;5030571;28;20428;-53
2023/04/10 02:27:32;;;;;;;11.07;8.83;;;10.10;52.80;;;;;;5028709;28;20428;-53
2023/04/10 02:29:58;;;;;;;11.17;9.40;;;9.90;54.00;;;;;;5030574;28;20216;-54
2023/04/10 02:32:24;;;;;;;10.87;9.07;;;9.70;54.90;;;;;;5029869;28;20436;-54
2023/04/10 02:34:49;;;;;;;10.53;8.90;;;9.60;55.20;;;;;;5030192;28;20541;-51
2023/04/10 02:37:15;;;;;;;12.30;9.03;;;9.50;55.40;;;;;;5030538;28;20268;-51
2023/04/10 02:39:41;;;;;;;12.20;9.90;;;9.50;55.60;;;;;;5030443;28;20617;-54
2023/04/10 02:42:06;;;;;;;13.10;10.03;;;9.50;56.00;;;;;;5029958;28;20443;-53
2023/04/10 02:44:32;;;;;;;10.70;9.33;;;9.70;55.50;;;;;;5030340;28;20204;-53
2023/04/10 02:46:58;;;;;;;10.90;9.00;;;9.80;54.80;;;;;;5030185;28;20563;-50
2023/04/10 02:49:23;;;;;;;13.07;9.80;;;9.60;55.00;;;;;;5030397;28;20192;-52
2023/04/10 02:51:49;;;;;;;12.07;9.77;;;9.50;55.30;;;;;;5030013;28;20190;-53
2023/04/10 02:54:14;;;;;;;10.67;8.80;;;9.70;55.30;;;;;;5030902;28;20229;-50
2023/04/10 02:56:40;;;;;;;11.50;9.47;;;9.70;55.20;;;;;;5032454;28;20224;-53
2023/04/10 02:59:06;;;;;;;11.87;9.87;;;9.80;55.00;;;;;;5034131;28;20619;-54
2023/04/10 03:01:32;;;;;;;13.47;9.30;;;9.90;54.50;;;;;;5033463;28;20636;-53
2023/04/10 03:03:58;;;;;;;12.23;9.60;;;9.80;54.40;;;;;;5041415;28;20489;-54
2023/04/10 03:06:27;;;;;;;10.00;7.77;;;9.90;54.50;;;;;;5053560;28;20189;-52
2023/04/10 03:08:53;;;;;;;11.13;8.83;;;10.00;53.50;;;;;;5053412;28;20208;-52
2023/04/10 03:11:18;;;;;;;11.03;9.17;;;9.90;54.10;;;;;;5053129;28;20462;-50
2023/04/10 03:13:44;;;;;;;12.13;9.00;;;10.10;53.20;;;;;;5053496;28;20443;-49
2023/04/10 03:16:09;;;;;;;14.33;10.50;;;10.20;52.90;;;;;;5053356;28;20235;-52
2023/04/10 03:18:35;;;;;;;11.30;8.97;;;10.30;52.70;;;;;;5053660;28;20687;-53
2023/04/10 03:21:01;;;;;;;12.00;9.20;;;10.30;52.60;;;;;;5051311;28;20234;-51
2023/04/10 03:23:27;;;;;;;11.70;9.40;;;10.30;52.50;;;;;;5053295;28;20197;-50
2023/04/10 03:25:53;;;;;;;12.50;9.30;;;10.40;52.50;;;;;;5053216;28;20427;-52
2023/04/10 03:28:19;;;;;;;11.70;8.73;;;10.30;52.30;;;;;;5053235;28;20291;-54
2023/04/10 03:30:45;;;;;;;11.10;9.43;;;9.90;54.50;;;;;;5052806;28;20430;-50
2023/04/10 03:33:11;;;;;;;11.90;9.57;;;9.70;54.50;;;;;;5053320;28;20423;-54
2023/04/10 03:35:36;;;;;;;11.03;9.17;;;9.60;54.80;;;;;;5053026;28;20228;-52
2023/04/10 03:38:02;;;;;;;11.70;9.30;;;9.70;54.90;;;;;;5053449;28;20196;-53
2023/04/10 03:40:27;;;;;;;12.43;10.23;;;9.90;54.60;;;;;;5052784;28;20662;-51
2023/04/10 03:42:53;;;;;;;10.70;8.60;;;10.00;53.30;;;;;;5052995;28;20808;-50
2023/04/10 03:45:19;;;;;;;12.33;9.80;;;10.10;52.90;;;;;;5053000;28;20199;-52
2023/04/10 03:47:44;;;;;;;12.90;9.80;;;10.10;52.60;;;;;;5051482;28;20641;-54
2023/04/10 03:50:10;;;;;;;12.53;10.20;;;10.20;52.60;;;;;;5032927;28;20236;-51
2023/04/10 03:52:35;;;;;;;10.80;9.23;;;10.20;52.50;;;;;;5032603;28;20197;-50
2023/04/10 03:55:01;;;;;;;12.07;9.00;;;10.20;52.70;;;;;;5032331;28;20251;-54
2023/04/10 03:57:26;;;;;;;10.60;8.97;;;10.10;53.10;;;;;;5032809;28;20207;-50
2023/04/10 03:59:52;;;;;;;12.90;10.00;;;10.00;52.70;;;;;;5032714;28;20193;-54
2023/04/10 04:02:17;;;;;;;12.50;8.47;;;9.60;54.20;;;;;;5032390;28;20197;-49
2023/04/10 04:04:43;;;;;;;9.87;8.80;;;9.40;54.90;;;;;;5032260;28;20606;-51
2023/04/10 04:07:10;;;;;;;9.17;7.80;;;9.10;55.70;;;;;;5032598;28;20877;-52
2023/04/10 04:09:35;;;;;;;12.70;9.53;;;9.10;56.00;;;;;;5032650;28;20787;-53
2023/04/10 04:12:01;;;;;;;11.70;9.03;;;9.30;55.90;;;;;;5032165;28;20425;-50
2023/04/10 04:14:26;;;;;;;13.50;10.40;;;9.40;55.50;;;;;;5030883;28;20201;-50
2023/04/10 04:16:52;;;;;;;10.80;9.27;;;9.30;55.30;;;;;;5032430;28;20205;-53
2023/04/10 04:19:17;;;;;;;14.17;9.80;;;9.10;55.50;;;;;;5032416;28;20244;-50
2023/04/10 04:21:43;;;;;;;11.73;9.53;;;9.10;55.80;;;;;;5032011;28;20599;-50
2023/04/10 04:24:08;;;;;;;11.30;8.60;;;8.90;56.20;;;;;;5032412;28;20189;-49
2023/04/10 04:26:34;;;;;;;12.20;8.73;;;9.00;56.20;;;;;;5032358;28;20193;-49
2023/04/10 04:28:59;;;;;;;11.90;8.63;;;9.10;56.10;;;;;;5032149;28;20208;-52
2023/04/10 04:31:31;;;;;;;10.37;9.13;;;8.80;56.40;;;;;;5031669;28;20192;-50
2023/04/10 04:33:59;;;;;;;12.50;9.67;;;9.00;56.90;;;;;;5032035;28;20208;-53
2023/04/10 04:36:26;;;;;;;10.90;9.63;;;9.20;56.20;;;;;;5032113;28;20484;-49
2023/04/10 04:38:52;;;;;;;13.40;9.60;;;9.40;55.70;;;;;;5032091;28;20486;-50
2023/04/10 04:41:18;;;;;;;14.50;9.20;;;9.20;55.40;;;;;;5030370;28;20506;-49
2023/04/10 04:43:44;;;;;;;11.10;9.70;;;9.10;56.00;;;;;;5031916;28;20431;-52
2023/04/10 04:46:09;;;;;;;11.27;8.70;;;8.90;56.30;;;;;;5031819;28;20201;-50
2023/04/10 04:48:35;;;;;;;13.00;9.70;;;8.90;56.60;;;;;;5032038;28;20413;-50
2023/04/10 04:51:01;;;;;;;11.20;8.27;;;8.90;56.70;;;;;;5031594;28;20208;-50
2023/04/10 04:53:26;;;;;;;11.97;8.90;;;8.90;56.30;;;;;;5031587;28;20240;-50
2023/04/10 04:55:52;;;;;;;10.43;9.33;;;9.00;56.30;;;;;;5031855;28;20311;-49
2023/04/10 04:58:19;;;;;;;12.57;8.93;;;9.10;56.10;;;;;;5031699;28;20223;-51
2023/04/10 05:00:44;;;;;;;11.37;8.70;;;8.80;56.30;;;;;;5031254;28;20615;-50
2023/04/10 05:03:10;;;;;;;11.53;8.50;;;8.70;57.10;;;;;;5031574;28;20467;-50
2023/04/10 05:05:35;;;;;;;9.70;8.63;;;8.50;57.20;;;;;;5031770;28;20189;-50
2023/04/10 05:08:01;;;;;;;11.50;8.50;;;8.70;57.70;;;;;;5030079;28;20259;-49
2023/04/10 05:10:27;;;;;;;10.20;7.80;;;8.90;57.10;;;;;;5031181;28;20843;-54
2023/04/10 05:12:52;;;;;;;9.47;8.03;;;8.80;56.80;;;;;;5031406;28;20651;-51
2023/04/10 05:15:18;;;;;;;10.10;8.37;;;8.70;57.00;;;;;;5031060;28;20569;-54
2023/04/10 05:17:43;;;;;;;9.53;8.57;;;8.40;58.00;;;;;;5030991;28;20556;-54
2023/04/10 05:20:09;;;;;;;13.90;9.30;;;8.30;58.70;;;;;;5031149;28;20235;-50
2023/04/10 05:22:35;;;;;;;9.53;8.50;;;8.60;58.60;;;;;;5031166;28;20243;-52
2023/04/10 05:25:00;;;;;;;12.73;9.30;;;8.50;58.60;;;;;;5031277;28;20447;-54
2023/04/10 05:27:26;;;;;;;9.97;7.30;;;8.60;58.30;;;;;;5031164;28;20197;-53
2023/04/10 05:29:52;;;;;;;11.00;8.83;;;8.40;58.30;;;;;;5031053;28;20657;-53
2023/04/10 05:32:17;;;;;;;11.70;8.83;;;8.30;58.70;;;;;;5030579;28;20203;-53
2023/04/10 05:34:43;;;;;;;11.73;9.20;;;8.50;58.70;;;;;;5029224;28;20228;-54
2023/04/10 05:37:11;;;;;;;10.17;7.97;;;8.60;58.60;;;;;;5031099;28;20193;-52
2023/04/10 05:39:37;;;;;;;12.67;8.60;;;8.70;58.30;;;;;;5030838;28;20220;-53
2023/04/10 05:42:03;;;;;;;9.13;8.20;;;8.70;58.20;;;;;;5030697;28;20428;-52
2023/04/10 05:44:29;;;;;;;12.53;8.00;;;8.50;58.60;;;;;;5031221;28;20217;-53
2023/04/10 05:46:55;;;;;;;12.60;9.07;;;8.20;59.30;;;;;;5030882;28;20238;-54
2023/04/10 05:49:20;;;;;;;10.40;8.40;;;7.90;60.20;;;;;;5030748;28;20424;-51
2023/04/10 05:51:49;;;;;;;9.67;7.20;;;7.80;60.80;;;;;;5030685;28;20208;-54
2023/04/10 05:54:15;;;;;;;10.23;8.80;;;8.10;60.50;;;;;;5030615;28;20700;-53
2023/04/10 05:56:40;;;;;;;11.60;8.60;;;8.20;60.10;;;;;;5030716;28;20463;-53
2023/04/10 05:59:06;;;;;;;10.80;8.10;;;8.10;60.20;;;;;;5030902;28;20427;-54
2023/04/10 06:01:32;;;;;;;9.50;8.03;;;8.20;60.40;;;;;;5028707;28;20224;-52
2023/04/10 06:03:57;;;;;;;9.70;7.70;;;8.40;59.70;;;;;;5030887;28;20268;-51
2023/04/10 06:06:24;;;;;;;9.97;8.20;;;8.70;59.30;;;;;;5030674;28;20201;-50
2023/04/10 06:08:50;;;;;;;9.67;8.60;;;8.80;59.00;;;;;;5030698;28;20193;-53
2023/04/10 06:11:16;;;;;;;9.33;7.90;;;9.00;58.80;;;;;;5030280;28;20487;-50
2023/04/10 06:13:41;;;;;;;8.43;7.53;;;9.10;58.20;;;;;;5030714;28;20230;-51
2023/04/10 06:16:07;;;;;;;9.83;8.07;;;9.10;58.40;;;;;;5030742;28;20221;-49
2023/04/10 06:18:33;;;;;;;8.97;7.30;;;9.10;58.00;;;;;;5030673;28;20198;-53
2023/04/10 06:21:00;;;;;;;9.87;7.80;;;9.10;58.10;;;;;;5030013;28;20451;-54
2023/04/10 06:23:27;;;;;;;10.00;7.43;;;9.40;57.90;;;;;;5030362;28;20205;-52
2023/04/10 06:25:53;;;;;;;8.70;7.37;;;9.50;57.20;;;;;;5030297;28;20497;-52
2023/04/10 06:28:19;;;;;;;10.47;7.30;;;9.80;56.90;;;;;;5031683;28;20577;-49
2023/04/10 06:30:45;;;;;;;11.00;7.63;;;10.10;55.10;;;;;;5034113;28;20982;-52
2023/04/10 06:33:10;;;;;;;9.27;7.60;;;10.20;54.40;;;;;;5034715;28;20300;-53
2023/04/10 06:35:36;;;;;;;9.80;7.37;;;10.10;54.10;;;;;;5034276;28;20229;-51
2023/04/10 06:38:02;;;;;;;8.47;7.27;;;10.00;54.00;;;;;;5034646;28;20240;-50
2023/04/10 06:40:29;;;;;;;9.13;7.13;;;10.00;53.90;;;;;;5033971;28;20193;-51
2023/04/10 06:42:55;;;;;;;7.67;6.87;;;9.90;54.40;;;;;;5034243;28;20919;-52
2023/04/10 06:45:21;;;;;;;7.30;6.30;;;10.20;53.70;;;;;;5034220;28;20800;-49
2023/04/10 06:47:46;;;;;;;8.73;7.83;;;10.40;53.30;;;;;;5034110;28;20434;-53
2023/04/10 06:50:12;;;;;;;9.03;6.60;;;10.40;52.40;;;;;;5033697;28;20197;-52
2023/04/10 06:52:38;;;;;;;7.83;6.93;;;10.40;52.40;;;;;;5034142;28;20194;-53
2023/04/10 06:55:04;;;;;;;9.40;7.57;;;10.60;52.20;;;;;;5031992;28;20241;-50
2023/04/10 06:57:29;;;;;;;9.47;7.23;;;10.80;51.70;;;;;;5033995;28;20201;-51
2023/04/10 06:59:55;;;;;;;7.87;6.70;;;11.00;51.10;;;;;;5033680;28;21287;-53
2023/04/10 07:02:20;;;;;;;8.03;7.03;;;11.30;50.70;;;;;;5033940;28;20197;-52
2023/04/10 07:04:46;;;;;;;8.80;7.90;;;11.20;50.20;;;;;;5033691;28;20208;-50
2023/04/10 07:07:12;;;;;;;7.80;6.67;;;11.30;50.20;;;;;;5033802;28;20197;-49
2023/04/10 07:09:38;;;;;;;7.97;7.17;;;11.50;50.00;;;;;;5033698;28;20534;-51
2023/04/10 07:12:04;;;;;;;7.80;7.00;;;11.70;49.40;;;;;;5033550;28;20284;-51
2023/04/10 07:14:33;;;;;;;8.90;6.77;;;11.80;48.80;;;;;;5033712;28;20411;-50
2023/04/10 07:16:59;;;;;;;7.43;6.73;;;11.90;49.10;;;;;;5033649;28;20208;-54
2023/04/10 07:19:24;;;;;;;7.93;6.40;;;12.10;48.70;;;;;;5033583;28;20935;-50
2023/04/10 07:21:50;;;;;;;7.80;6.30;;;12.40;48.00;;;;;;5031535;28;20216;-51
2023/04/10 07:24:16;;;;;;;7.37;6.47;;;12.60;47.50;;;;;;5033613;28;20607;-51
2023/04/10 07:26:44;;;;;;;6.80;6.00;;;13.00;47.10;;;;;;5033631;28;20201;-50
2023/04/10 07:29:10;;;;;;;8.20;6.57;;;13.20;46.20;;;;;;5033311;28;20428;-51
2023/04/10 07:31:35;;;;;;;6.90;6.20;;;13.20;45.90;;;;;;5033100;28;20489;-50
2023/04/10 07:34:01;;;;;;;6.77;6.10;;;13.20;45.40;;;;;;5033460;28;20193;-53
2023/04/10 07:36:27;;;;;;;7.20;6.50;;;13.30;46.00;;;;;;5033335;28;20232;-51
2023/04/10 07:38:53;;;;;;;7.80;6.50;;;13.70;45.30;;;;;;5032404;28;20436;-51
2023/04/10 07:41:19;;;;;;;5.70;5.10;;;13.90;44.30;;;;;;5032898;28;20197;-52
2023/04/10 07:43:45;;;;;;;7.37;6.47;;;13.90;44.20;;;;;;5033254;28;20527;-50
2023/04/10 07:46:11;;;;;;;7.17;5.63;;;14.00;44.00;;;;;;5033100;28;20197;-51
2023/04/10 07:48:36;;;;;;;6.70;6.10;;;14.40;44.20;;;;;;5031632;28;20661;-51
2023/04/10 07:51:02;;;;;;;7.30;6.23;;;14.60;43.80;;;;;;5032717;28;20824;-51
2023/04/10 07:53:28;;;;;;;7.07;5.80;;;14.70;43.60;;;;;;5032848;28;20584;-51
2023/04/10 07:55:53;;;;;;;7.10;6.40;;;15.10;43.00;;;;;;5032848;28;20293;-50
2023/04/10 07:58:19;;;;;;;6.47;5.87;;;15.00;42.30;;;;;;5032862;28;20798;-50
2023/04/10 08:00:45;;;;;;;6.73;5.80;;;15.10;42.20;;;;;;5032572;28;20193;-53
2023/04/10 08:03:12;;;;;;;6.40;5.73;;;15.40;42.20;;;;;;5032817;28;20579;-50
2023/04/10 08:05:37;;;;;;;7.10;5.70;;;15.40;41.50;;;;;;5031458;28;20471;-50
2023/04/10 08:08:03;;;;;;;6.50;5.87;;;15.50;41.70;;;;;;5032938;28;20463;-49
2023/04/10 08:10:28;;;;;;;6.73;5.63;;;15.70;41.30;;;;;;5032345;28;20232;-51
2023/04/10 08:12:54;;;;;;;6.23;5.30;;;15.70;41.00;;;;;;5032639;28;20193;-50
2023/04/10 08:15:20;;;;;;;6.73;5.63;;;15.80;41.80;;;;;;5032035;28;20233;-50
2023/04/10 08:17:45;;;;;;;6.70;6.00;;;16.00;41.00;;;;;;5031651;28;20268;-50
2023/04/10 08:20:12;;;;;;;6.13;5.57;;;16.40;40.70;;;;;;5032176;28;20219;-50
2023/04/10 08:22:37;;;;;;;6.00;5.40;;;16.30;39.80;;;;;;5032364;28;20221;-50
2023/04/10 08:25:04;;;;;;;5.03;4.60;;;16.40;39.80;;;;;;5032538;28;20470;-50
2023/04/10 08:27:29;;;;;;;5.93;5.33;;;16.40;38.60;;;;;;5032592;28;20292;-51
2023/04/10 08:29:55;;;;;;;5.73;5.23;;;16.50;38.80;;;;;;5031917;28;20535;-50
2023/04/10 08:32:21;;;;;;;5.63;5.10;;;16.40;38.70;;;;;;5032121;28;20216;-50
2023/04/10 08:34:47;;;;;;;5.67;5.17;;;16.70;39.00;;;;;;5032280;28;20479;-51
2023/04/10 08:37:14;;;;;;;6.43;5.83;;;16.90;38.60;;;;;;5032115;28;20197;-50
2023/04/10 08:39:40;;;;;;;5.23;4.83;;;16.80;37.90;;;;;;5032056;28;20494;-51
2023/04/10 08:42:06;;;;;;;5.37;4.93;;;16.80;38.10;;;;;;5031671;28;20428;-54
2023/04/10 08:44:32;;;;;;;5.53;5.03;;;17.10;38.30;;;;;;5030660;28;20439;-51
2023/04/10 08:47:00;;;;;;;5.60;5.10;;;17.40;37.50;;;;;;5030550;28;20448;-50
2023/04/10 08:49:43;;;;;;;5.07;4.57;;;17.50;36.60;;;;;;5031817;28;20204;-51
2023/04/10 08:52:19;;;;;;;5.33;4.87;;;17.60;36.30;;;;;;5031360;28;20946;-50
2023/04/10 08:54:49;;;;;;;5.30;4.80;;;17.40;35.60;;;;;;5030448;28;20589;-50
2023/04/10 08:57:19;;;;;;;5.17;4.77;;;17.50;36.50;;;;;;5030504;28;20459;-52
2023/04/10 08:59:53;;;;;;;4.50;3.97;;;17.80;36.20;;;;;;5031309;28;20486;-53
2023/04/10 09:02:19;;;;;;;4.93;4.43;;;17.80;33.90;;;;;;5031781;28;20420;-50
2023/04/10 09:04:50;;;;;;;5.10;4.60;;;17.60;35.30;;;;;;5031516;28;20502;-50
2023/04/10 09:07:17;;;;;;;5.20;4.80;;;17.70;36.70;;;;;;5031499;28;20796;-51
2023/04/10 09:09:43;;;;;;;4.60;4.20;;;18.00;35.50;;;;;;5029623;28;20840;-51
2023/04/10 09:12:09;;;;;;;4.77;4.37;;;18.20;34.60;;;;;;5031547;28;20428;-51
2023/04/10 09:14:36;;;;;;;4.13;3.83;;;18.10;34.40;;;;;;5031379;28;20432;-49
2023/04/10 09:17:10;;;;;;;3.87;3.57;;;18.20;35.10;;;;;;5031546;28;20433;-52
2023/04/10 09:19:36;;;;;;;4.37;3.97;;;18.40;33.60;;;;;;5031189;28;20789;-52
2023/04/10 09:22:02;;;;;;;4.20;3.83;;;18.40;32.40;;;;;;5031352;28;20438;-51
2023/04/10 09:24:27;;;;;;;4.73;4.37;;;18.40;32.80;;;;;;5031373;28;20216;-50
2023/04/10 09:26:53;;;;;;;4.00;3.70;;;18.60;32.70;;;;;;5031250;28;20648;-50
2023/04/10 09:29:19;;;;;;;4.30;3.90;;;18.40;32.10;;;;;;5031157;28;20602;-51
2023/04/10 09:31:45;;;;;;;5.10;4.60;;;18.00;32.10;;;;;;5030774;28;20432;-50
2023/04/10 09:34:20;;;;;;;5.30;4.80;;;18.40;32.60;;;;;;5031087;28;20239;-50
2023/04/10 09:37:00;;;;;;;4.40;4.07;;;18.60;32.30;;;;;;5029598;28;20218;-50
2023/04/10 09:39:39;;;;;;;3.60;3.30;;;18.40;31.30;;;;;;5030777;28;20440;-50
2023/04/10 09:42:05;;;;;;;4.40;4.10;;;18.70;31.90;;;;;;5030865;28;20419;-51
2023/04/10 09:44:33;;;;;;;5.37;3.70;;;19.00;31.80;;;;;;5030893;28;20974;-51
2023/04/10 09:47:18;;;;;;;4.40;4.00;;;18.90;30.80;;;;;;5030787;28;20225;-50
2023/04/10 09:49:48;;;;;;;4.40;4.10;;;18.80;31.20;;;;;;5030212;28;20439;-51
2023/04/10 09:52:17;;;;;;;4.40;4.00;;;18.90;31.90;;;;;;5030682;28;20435;-51
2023/04/10 09:54:43;;;;;;;3.67;3.37;;;19.30;31.50;;;;;;5030633;28;20463;-50
2023/04/10 09:57:09;;;;;;;4.20;3.83;;;19.20;30.50;;;;;;5030872;28;20435;-51
2023/04/10 09:59:38;;;;;;;4.60;4.20;;;19.10;30.00;;;;;;5030967;28;20247;-51
2023/04/10 10:02:04;;;;;;;4.03;3.73;;;19.40;31.00;;;;;;5030415;28;20851;-52
2023/04/10 10:04:30;;;;;;;3.90;3.60;;;19.10;30.40;;;;;;5029064;28;20938;-55
2023/04/10 10:06:55;;;;;;;4.27;3.87;;;19.30;30.30;;;;;;5030663;28;20420;-51
2023/04/10 10:09:21;;;;;;;3.70;3.40;;;19.40;31.00;;;;;;5030740;28;20197;-55
2023/04/10 10:11:49;;;;;;;3.67;3.37;;;19.50;30.60;;;;;;5030584;28;20288;-53
2023/04/10 10:14:20;;;;;;;3.43;3.13;;;19.70;30.20;;;;;;5030824;28;20185;-54
2023/04/10 10:16:50;;;;;;;4.00;3.70;;;19.60;30.30;;;;;;5030536;28;20475;-54
2023/04/10 10:19:35;;;;;;;4.27;3.87;;;19.60;29.70;;;;;;5030612;28;20424;-54
2023/04/10 10:22:02;;;;;;;3.90;3.60;;;19.70;30.10;;;;;;5030479;28;20659;-54
2023/04/10 10:24:30;;;;;;;3.80;3.50;;;19.80;30.00;;;;;;5030313;28;20926;-54
2023/04/10 10:26:57;;;;;;;3.70;3.40;;;20.40;30.80;;;;;;5030364;28;20437;-55
2023/04/10 10:29:23;;;;;;;3.57;3.27;;;21.00;29.60;;;;;;5030498;28;20816;-54
2023/04/10 10:31:49;;;;;;;3.47;3.17;;;21.30;29.40;;;;;;5028602;28;20900;-52
2023/04/10 10:34:15;;;;;;;3.30;3.10;;;21.60;29.00;;;;;;5030539;28;20443;-54
2023/04/10 10:36:41;;;;;;;3.43;3.13;;;22.10;28.90;;;;;;5030340;28;20268;-55
2023/04/10 10:39:29;;;;;;;3.60;3.30;;;22.20;28.30;;;;;;5030288;28;20510;-54
2023/04/10 10:42:09;;;;;;;3.23;2.93;;;22.40;27.60;;;;;;5030025;28;20424;-52
2023/04/10 10:44:46;;;;;;;3.13;2.87;;;22.00;27.20;;;;;;5030598;28;20426;-51
2023/04/10 10:47:18;;;;;;;3.40;3.10;;;22.00;28.00;;;;;;5030181;28;20477;-52
2023/04/10 10:49:55;;;;;;;2.80;2.60;;;22.30;27.70;;;;;;5029937;28;20523;-49
2023/04/10 10:52:40;;;;;;;3.37;3.07;;;22.60;27.20;;;;;;5030045;28;20511;-52
2023/04/10 10:55:21;;;;;;;3.40;3.10;;;23.20;26.90;;;;;;5029785;28;20578;-52
2023/04/10 10:57:49;;;;;;;3.17;2.97;;;23.30;26.70;;;;;;5028651;28;20453;-52
2023/04/10 11:00:15;;;;;;;3.50;3.23;;;23.30;27.10;;;;;;5029698;28;20443;-52
2023/04/10 11:02:41;;;;;;;3.30;3.00;;;23.10;27.00;;;;;;5030111;28;20424;-50
2023/04/10 11:05:07;;;;;;;3.03;2.83;;;23.00;26.60;;;;;;5030168;28;20979;-52
2023/04/10 11:07:57;;;;;;;3.13;2.93;;;23.00;26.80;;;;;;5030560;28;20197;-52
2023/04/10 11:11:17;;;;;;;2.47;2.27;;;22.80;26.80;;;;;;5029646;28;20427;-52
2023/04/10 11:13:51;;;;;;;2.47;2.27;;;22.60;26.10;;;;;;5007946;28;20462;-48
2023/04/10 11:16:21;;;;;;;2.43;2.23;;;22.70;25.10;;;;;;5033554;28;20483;-53
2023/04/10 11:18:49;;;;;;;2.83;2.63;;;22.80;25.70;;;;;;5033547;28;20459;-50
2023/04/10 11:21:18;;;;;;;2.70;2.50;;;22.80;25.30;;;;;;5033102;28;20436;-51
2023/04/10 11:23:56;;;;;;;2.73;2.53;;;22.60;25.80;;;;;;5032344;28;20486;-52
2023/04/10 11:26:38;;;;;;;2.80;2.60;;;22.80;26.20;;;;;;5033409;28;20431;-52
2023/04/10 11:29:26;;;;;;;2.77;2.57;;;23.00;25.50;;;;;;5033368;28;20935;-52
2023/04/10 11:32:03;;;;;;;2.90;2.10;;;23.10;25.50;;;;;;5027368;28;20446;-52
2023/04/10 11:34:32;;;;;;;2.53;2.33;;;23.50;24.80;;;;;;5033243;28;20498;-50
2023/04/10 11:37:02;;;;;;;2.80;2.20;;;23.80;24.30;;;;;;5033299;28;20435;-50
2023/04/10 11:39:29;;;;;;;2.30;2.10;;;23.80;24.00;;;;;;5033037;28;20853;-52
2023/04/10 11:41:56;;;;;;;2.50;2.30;;;24.00;24.20;;;;;;5033221;28;20455;-52
2023/04/10 11:44:25;;;;;;;2.50;2.30;;;24.40;23.70;;;;;;5033104;28;20428;-53
2023/04/10 11:46:51;;;;;;;1.90;1.80;;;24.70;24.00;;;;;;5032879;28;20436;-52
2023/04/10 11:49:18;;;;;;;2.80;2.60;;;25.00;23.40;;;;;;5032941;28;20486;-52
2023/04/10 11:51:46;;;;;;;2.50;2.30;;;25.00;22.90;;;;;;5031135;28;20888;-50
2023/04/10 11:54:13;;;;;;;2.37;2.17;;;25.10;23.40;;;;;;5032572;28;20472;-52
2023/04/10 11:56:44;;;;;;;1.90;1.80;;;24.60;22.70;;;;;;5032780;28;20476;-52
2023/04/10 11:59:12;;;;;;;2.07;1.83;;;24.60;22.50;;;;;;5032758;28;20435;-53
2023/04/10 12:01:38;;;;;;;2.00;1.80;;;24.40;21.70;;;;;;5032201;28;20448;-51
2023/04/10 12:04:15;;;;;;;1.80;1.70;;;24.70;22.60;;;;;;5032957;28;20421;-51
2023/04/10 12:06:45;;;;;;;2.27;2.13;;;25.00;22.30;;;;;;5032595;28;20565;-52
2023/04/10 12:09:16;;;;;;;1.90;1.80;;;25.40;22.70;;;;;;5032807;28;20458;-48
2023/04/10 12:11:58;;;;;;;1.80;1.70;;;25.50;22.30;;;;;;5032207;28;20432;-53
2023/04/10 12:14:30;;;;;;;1.73;1.63;;;25.40;22.20;;;;;;5032698;28;20424;-52
2023/04/10 12:16:56;;;;;;;1.70;1.60;;;24.80;21.00;;;;;;5032418;28;20747;-49
2023/04/10 12:19:22;;;;;;;1.43;1.33;;;24.00;22.00;;;;;;5030979;28;20510;-52
2023/04/10 12:21:48;;;;;;;1.60;1.50;;;24.30;21.90;;;;;;5032577;28;20510;-53
2023/04/10 12:24:43;;;;;;;1.53;1.43;;;24.90;21.60;;;;;;5032145;28;20519;-52
2023/04/10 12:27:26;;;;;;;2.00;1.90;;;25.20;21.90;;;;;;5032466;28;20251;-49
2023/04/10 12:29:53;;;;;;;2.10;2.00;;;25.20;23.30;;;;;;5031877;28;20436;-50
2023/04/10 12:32:19;;;;;;;1.23;1.13;;;25.40;22.80;;;;;;5032125;28;20452;-52
2023/04/10 12:34:56;;;;;;;1.40;1.30;;;25.10;21.30;;;;;;5032291;28;20716;-49
2023/04/10 12:37:21;;;;;;;1.07;1.07;;;25.40;20.50;;;;;;5032093;28;20778;-52
2023/04/10 12:39:47;;;;;;;1.77;1.67;;;25.20;19.70;;;;;;5031931;28;20474;-49
2023/04/10 12:42:19;;;;;;;1.57;1.47;;;25.20;21.00;;;;;;5032187;28;20197;-52
2023/04/10 12:44:56;;;;;;;1.43;1.33;;;25.20;20.80;;;;;;5030453;28;20193;-49
2023/04/10 12:47:22;;;;;;;1.50;1.40;;;25.50;20.20;;;;;;5031826;28;20489;-52
2023/04/10 12:50:07;;;;;;;1.60;1.50;;;25.80;20.00;;;;;;5031646;28;20435;-48